Latest Weather Observations for Tarcoola

IDS60801

Issued at 4:01 pm CST Wednesday 29 July 2015 (issued every 30 minutes, with the page automatically refreshed every 10 minutes)

About weather observations | Map of weather stations | Latest weather observations for SA | Other Formats
Station Details ID: 016098 Name: TARCOOLA AERO Lat: -30.71 Lon: 134.58 Height: 123.0 m
Data from the previous 72 hours. | See also: Recent months at Tarcoola
Date/Time
CST
Temp
°C
App
Temp
°C
Dew
Point
Rel
Hum
%
Delta-T
°C
Wind Press
QNH
hPa
Press
MSL
hPa
Rain
since 9 am
mm
Dir
 
Spd
km/h
Gust
km/h
Spd
kts
Gust
kts
29/04:00pm 17.5 10.1 -3.8 23 8.5 N 26 37 14 20 1024.9 1025.0 0.0
29/03:30pm 17.6 11.0 -3.7 23 8.5 N 22 33 12 18 1025.2 1025.3 0.0
29/03:00pm 17.4 9.6 -3.9 23 8.5 N 28 35 15 19 1025.4 1025.5 0.0
29/02:30pm 17.2 9.5 -3.0 25 8.2 N 28 37 15 20 1025.8 1025.9 0.0
29/02:00pm 16.6 9.0 -2.5 27 7.8 N 28 35 15 19 1025.8 1025.9 0.0
29/01:30pm 16.6 9.1 -1.5 29 7.5 N 28 41 15 22 1026.5 1026.6 0.0
29/01:00pm 14.5 7.0 -1.6 33 6.6 N 28 43 15 23 1027.1 1027.2 0.0
29/12:30pm 13.1 4.8 -1.6 36 5.9 N 32 43 17 23 1027.5 1027.6 0.0
29/12:00pm 12.3 3.4 -1.6 38 5.5 N 35 50 19 27 1027.5 1027.6 0.0
29/11:30am 12.0 3.6 -1.2 40 5.3 N 33 48 18 26 1028.4 1028.6 0.0
29/11:00am 11.4 4.0 -1.0 42 5.0 NNE 28 37 15 20 1029.3 1029.4 0.0
29/10:30am 11.1 4.8 -0.7 44 4.7 N 22 30 12 16 1030.8 1030.9 0.0
29/10:00am 10.7 4.9 -0.4 46 4.5 NNE 20 28 11 15 1030.9 1031.0 0.0
29/09:30am 10.0 5.1 -0.5 48 4.2 NNE 15 22 8 12 1031.1 1031.2 0.0
29/09:00am 9.2 3.5 -0.4 51 3.8 NE 19 24 10 13 1030.7 1030.8 0.0
29/08:30am 8.6 2.8 -0.4 53 3.5 NE 20 26 11 14 1030.3 1030.4 0.0
29/08:00am 7.7 2.0 -0.5 56 3.2 NE 19 24 10 13 1030.4 1030.5 0.0
29/07:30am 7.3 2.7 -0.9 56 3.1 NE 13 19 7 10 1031.1 1031.2 0.0
29/07:00am 7.0 1.7 -0.9 57 3.0 NE 17 20 9 11 1030.5 1030.6 0.0
29/06:30am 6.9 2.7 -1.0 57 3.0 NNE 11 15 6 8 1030.6 1030.7 0.0
29/06:00am 7.2 2.6 -1.0 56 3.1 NNE 13 17 7 9 1030.2 1030.3 0.0
29/05:30am 7.1 2.5 -0.8 57 3.0 NNE 13 17 7 9 1030.3 1030.4 0.0
29/05:00am 6.2 1.6 -0.7 61 2.6 NNE 13 17 7 9 1030.3 1030.4 0.0
29/04:30am 5.7 0.4 -0.6 64 2.4 NE 17 17 9 9 1029.8 1029.9 0.0
29/04:00am 4.0 -0.7 -1.8 66 2.1 NE 13 15 7 8 1030.5 1030.6 0.0
29/03:30am 3.6 1.4 -1.9 67 2.0 CALM 0 0 0 0 1031.4 1031.5 0.0
29/03:00am 4.3 2.0 -2.1 63 2.3 CALM 0 0 0 0 1031.2 1031.3 0.0
29/02:30am 6.4 3.1 -1.5 57 2.9 NE 6 7 3 4 1031.0 1031.1 0.0
29/02:00am 6.2 2.2 -1.9 56 3.0 NE 9 11 5 6 1030.5 1030.6 0.0
29/01:30am 7.9 3.2 -1.6 51 3.6 NNE 13 17 7 9 1030.6 1030.7 0.0
29/01:00am 8.6 3.2 -1.5 49 3.9 NNE 17 19 9 10 1030.5 1030.6 0.0
29/12:30am 8.5 3.5 -1.3 50 3.7 NNE 15 20 8 11 1030.9 1031.0 0.0
29/12:00am 8.2 3.6 -1.3 51 3.6 NE 13 19 7 10 1031.0 1031.1 0.0
 
Date/Time
CST
Temp
°C
App
Temp
°C
Dew
Point
Rel
Hum
%
Delta-T
°C
Wind Press
QNH
hPa
Press
MSL
hPa
Rain
since 9 am
mm
Dir
 
Spd
km/h
Gust
km/h
Spd
kts
Gust
kts
28/11:30pm 8.8 3.5 -0.8 51 3.7 NE 17 22 9 12 1031.3 1031.4 0.0
28/11:00pm 8.4 3.8 -0.9 52 3.6 NE 13 15 7 8 1031.7 1031.8 0.0
28/10:30pm 9.0 4.5 -0.6 51 3.7 NE 13 15 7 8 1032.1 1032.2 0.0
28/10:00pm 7.5 3.4 -0.5 57 3.1 NE 11 13 6 7 1032.4 1032.5 0.0
28/09:30pm 7.7 3.9 -0.5 56 3.2 ENE 9 13 5 7 1032.3 1032.4 0.0
28/09:00pm 8.6 5.3 -0.2 54 3.5 ENE 7 9 4 5 1032.6 1032.7 0.0
28/08:30pm 8.9 5.8 -0.1 53 3.6 NE 6 6 3 3 1032.6 1032.7 0.0
28/08:00pm 9.1 5.3 -0.5 51 3.8 ENE 9 9 5 5 1032.3 1032.4 0.0
28/07:30pm 9.3 5.1 -0.8 49 3.9 ENE 11 11 6 6 1032.4 1032.5 0.0
28/07:00pm 10.1 6.2 -1.3 45 4.4 ENE 9 11 5 6 1032.3 1032.4 0.0
28/06:30pm 11.9 8.0 -1.3 40 5.2 NE 9 11 5 6 1032.4 1032.5 0.0
28/06:00pm 13.5 9.2 -1.6 35 6.0 NNE 11 15 6 8 1032.3 1032.4 0.0
28/05:30pm 15.2 10.6 -1.4 32 6.8 NNE 13 15 7 8 1032.1 1032.2 0.0
28/05:00pm 15.6 10.2 -1.4 31 7.0 NNE 17 20 9 11 1032.2 1032.3 0.0
28/04:30pm 16.6 12.3 -1.5 29 7.5 NNE 11 17 6 9 1032.5 1032.6 0.0
28/04:00pm 16.8 11.8 -1.3 29 7.6 N 15 24 8 13 1032.6 1032.7 0.0
28/03:30pm 16.7 11.4 -0.9 30 7.4 N 17 24 9 13 1033.0 1033.1 0.0
28/03:00pm 16.9 12.4 -0.3 31 7.3 N 13 19 7 10 1033.0 1033.1 0.0
28/02:30pm 16.5 11.3 -0.2 32 7.1 NNE 17 20 9 11 1033.4 1033.5 0.0
28/02:00pm 16.6 11.4 0.3 33 7.1 NNE 17 24 9 13 1033.5 1033.6 0.0
28/01:30pm 16.0 11.6 0.2 34 6.7 NNE 13 22 7 12 1034.2 1034.3 0.0
28/01:00pm 15.5 10.4 0.9 37 6.4 NE 17 30 9 16 1034.6 1034.7 0.0
28/12:30pm 14.7 9.6 0.9 39 5.9 NNE 17 28 9 15 1035.1 1035.3 0.0
28/12:00pm 14.3 8.8 1.6 42 5.5 NE 20 32 11 17 1035.6 1035.8 0.0
28/11:30am 13.6 8.1 1.6 44 5.2 NE 20 28 11 15 1036.1 1036.3 0.0
28/11:00am 12.8 7.0 2.1 48 4.7 NE 22 30 12 16 1036.6 1036.8 0.0
28/10:30am 11.6 5.9 2.6 54 3.9 NE 22 30 12 16 1037.1 1037.3 0.0
28/10:00am 10.5 5.1 2.4 57 3.5 ENE 20 24 11 13 1037.5 1037.6 0.0
28/09:30am 9.9 5.0 2.3 59 3.2 ENE 17 20 9 11 1037.5 1037.6 0.0
28/09:00am 8.2 4.9 2.4 67 2.4 ENE 9 13 5 7 1037.6 1037.7 0.0
28/08:30am 5.2 2.4 2.2 81 1.2 NE 6 9 3 5 1037.8 1037.9 0.0
28/08:00am 1.2 -2.2 -0.4 89 0.6 ENE 7 9 4 5 1037.8 1037.9 0.0
28/07:30am -0.3 -2.5 -1.9 89 0.5 CALM 0 0 0 0 1037.9 1038.0 0.0
28/07:00am 0.1 -2.1 -1.5 89 0.6 CALM 0 7 0 4 1037.7 1037.8 0.0
28/06:30am 0.1 -3.8 -1.5 89 0.6 WSW 9 9 5 5 1037.6 1037.7 0.0
28/06:00am 0.6 -2.9 -1.3 87 0.7 WSW 7 9 4 5 1037.2 1037.4 0.0
28/05:30am 1.6 -0.5 -1.1 82 1.0 CALM 0 0 0 0 1037.1 1037.3 0.0
28/05:00am 3.5 -0.2 0.0 78 1.3 SE 9 13 5 7 1036.5 1036.7 0.0
28/04:30am 4.3 0.5 1.5 82 1.1 ESE 11 13 6 7 1036.1 1036.3 0.0
28/04:00am 2.5 -1.6 0.1 84 0.9 E 11 13 6 7 1035.7 1035.9 0.0
28/03:30am 1.6 -0.9 -0.8 84 0.9 E 2 7 1 4 1035.8 1036.0 0.0
28/03:00am 1.6 -2.2 -1.0 83 0.9 ESE 9 11 5 6 1035.7 1035.9 0.0
28/02:30am 2.0 -0.5 -0.7 82 1.0 E 2 6 1 3 1035.8 1036.0 0.0
28/02:00am 2.8 -0.9 0.2 83 1.0 NE 9 11 5 6 1035.6 1035.8 0.0
28/01:30am 3.1 0.0 0.2 81 1.1 E 6 7 3 4 1036.0 1036.2 0.0
28/01:00am 3.3 1.4 0.5 82 1.1 CALM 0 0 0 0 1036.3 1036.5 0.0
28/12:30am 4.0 1.3 0.3 77 1.4 E 4 6 2 3 1036.5 1036.7 0.0
28/12:00am 5.2 3.0 1.3 76 1.5 E 2 6 1 3 1036.5 1036.7 0.0
 
Date/Time
CST
Temp
°C
App
Temp
°C
Dew
Point
Rel
Hum
%
Delta-T
°C
Wind Press
QNH
hPa
Press
MSL
hPa
Rain
since 9 am
mm
Dir
 
Spd
km/h
Gust
km/h
Spd
kts
Gust
kts
27/11:30pm 5.2 2.0 1.0 74 1.6 E 7 7 4 4 1036.7 1036.9 0.0
27/11:00pm 5.7 2.8 1.4 74 1.7 ESE 6 7 3 4 1036.8 1037.0 0.0
27/10:30pm 6.5 3.0 1.4 70 2.0 ESE 9 13 5 7 1036.6 1036.8 0.0
27/10:00pm 7.0 4.6 1.9 70 2.1 ESE 4 7 2 4 1036.7 1036.9 0.0
27/09:30pm 7.2 4.4 1.9 69 2.2 ESE 6 7 3 4 1036.5 1036.7 0.0
27/09:00pm 7.1 5.4 1.6 68 2.2 CALM 0 0 0 0 1036.4 1036.6 0.0
27/08:30pm 8.1 4.7 1.7 64 2.6 ESE 9 9 5 5 1036.4 1036.6 0.0
27/08:00pm 9.1 6.1 2.0 61 3.0 ESE 7 9 4 5 1036.4 1036.6 0.0
27/07:30pm 9.5 6.5 2.1 60 3.1 SE 7 9 4 5 1036.0 1036.2 0.0
27/07:00pm 10.5 7.1 1.9 55 3.7 SE 9 11 5 6 1035.7 1035.9 0.0
27/06:30pm 12.1 8.7 2.0 50 4.3 SSE 9 11 5 6 1035.5 1035.7 0.0
27/06:00pm 13.4 9.3 2.0 46 4.9 SSE 13 17 7 9 1035.3 1035.5 0.0
27/05:30pm 14.2 9.6 1.8 43 5.4 S 15 19 8 10 1035.0 1035.2 0.0
27/05:00pm 14.8 10.7 2.4 43 5.5 S 13 19 7 10 1034.9 1035.1 0.0
27/04:30pm 15.0 11.3 2.2 42 5.6 S 11 19 6 10 1034.7 1034.8 0.0
27/04:00pm 15.1 11.8 2.3 42 5.7 S 9 19 5 10 1034.7 1034.8 0.0
27/03:30pm 14.7 11.9 3.2 46 5.2 SSE 7 11 4 6 1034.8 1035.0 0.0
27/03:00pm 15.2 12.4 3.0 44 5.5 ESE 7 13 4 7 1034.5 1034.6 0.0
27/02:30pm 13.9 9.9 3.1 48 4.8 SE 13 20 7 11 1034.7 1034.8 0.0
27/02:00pm 14.7 12.0 3.5 47 5.1 ESE 7 13 4 7 1035.0 1035.2 0.0
27/01:30pm 14.3 10.4 3.5 48 4.9 ESE 13 20 7 11 1035.2 1035.4 0.0
27/01:00pm 13.3 11.1 3.4 51 4.5 E 4 9 2 5 1035.6 1035.8 0.0
27/12:30pm 12.8 9.7 3.5 53 4.1 SE 9 15 5 8 1036.1 1036.3 0.0
27/12:00pm 13.3 10.3 3.9 53 4.2 ESE 9 17 5 9 1036.6 1036.8 0.0
27/11:30am 11.7 9.0 3.7 58 3.5 SE 7 13 4 7 1037.0 1037.2 0.0
27/11:00am 11.8 8.8 4.1 59 3.5 SE 9 13 5 7 1037.7 1037.8 0.0
27/10:30am 11.6 10.3 5.9 68 2.6 NE 2 7 1 4 1038.1 1038.2 0.0
27/10:00am 8.8 7.9 5.9 82 1.3 CALM 0 0 0 0 1038.1 1038.2 0.0
27/09:30am 7.1 5.4 5.7 91 0.6 SW 4 6 2 3 1038.0 1038.1 0.0
27/09:00am 5.5 4.3 4.6 94 0.4 CALM 0 6 0 3 1037.6 1037.7 0.0
27/08:30am 3.7 1.4 2.8 94 0.4 SW 4 7 2 4 1037.0 1037.2 0.0
27/08:00am 2.2 -0.9 1.3 94 0.3 WSW 7 7 4 4 1036.7 1036.9 0.0
27/07:30am 1.0 -2.7 0.1 94 0.3 WSW 9 9 5 5 1036.3 1036.5 0.0
27/07:00am 1.1 -2.0 0.2 94 0.3 SW 6 7 3 4 1035.6 1035.8 0.0
27/06:30am 1.3 -2.0 0.4 94 0.3 WSW 7 7 4 4 1035.2 1035.4 0.0
27/06:00am 1.2 -2.4 0.3 94 0.3 WSW 9 11 5 6 1034.7 1034.8 0.0
27/05:30am 1.9 -1.1 0.9 93 0.4 SW 6 7 3 4 1034.4 1034.5 0.0
27/05:00am 2.4 -0.7 1.5 94 0.3 SW 7 9 4 5 1034.4 1034.5 0.0
27/04:30am 2.6 -0.4 1.7 94 0.3 SW 7 9 4 5 1034.3 1034.4 0.0
27/04:00am 2.9 -0.5 1.9 93 0.4 SW 9 9 5 5 1034.2 1034.3 0.0
27/03:30am 3.3 -0.4 2.3 93 0.4 SW 11 13 6 7 1034.1 1034.2 0.0
27/03:00am 3.4 0.1 2.4 93 0.4 WSW 9 11 5 6 1034.0 1034.1 0.0
27/02:30am 3.8 0.2 2.8 93 0.4 WSW 11 13 6 7 1033.9 1034.0 0.0
27/02:00am 4.0 0.8 3.0 93 0.4 WSW 9 9 5 5 1033.7 1033.8 0.0
27/01:30am 4.0 0.8 2.8 92 0.5 WSW 9 11 5 6 1033.5 1033.6 0.0
27/01:00am 4.5 1.9 3.2 91 0.5 SSW 6 7 3 4 1033.5 1033.6 0.0
27/12:30am 5.2 3.5 3.9 91 0.5 SSW 2 7 1 4 1033.4 1033.5 0.0
27/12:00am 5.8 3.2 4.4 91 0.6 SW 7 9 4 5 1033.5 1033.6 0.0
 
Date/Time
CST
Temp
°C
App
Temp
°C
Dew
Point
Rel
Hum
%
Delta-T
°C
Wind Press
QNH
hPa
Press
MSL
hPa
Rain
since 9 am
mm
Dir
 
Spd
km/h
Gust
km/h
Spd
kts
Gust
kts
26/11:30pm 5.9 3.0 4.4 90 0.6 WSW 9 11 5 6 1033.2 1033.3 0.0
26/11:00pm 6.5 4.0 4.8 89 0.7 WSW 7 9 4 5 1032.9 1033.0 0.0
26/10:30pm 7.1 3.9 5.1 87 0.9 WSW 11 11 6 6 1032.8 1032.9 0.0
26/10:00pm 8.0 4.9 5.5 84 1.1 SW 11 11 6 6 1032.7 1032.8 0.0
26/09:30pm 9.2 6.6 6.1 81 1.4 SW 9 11 5 6 1032.6 1032.7 0.0
26/09:00pm 10.5 7.6 6.6 77 1.8 SSW 11 17 6 9 1032.3 1032.4 0.0
26/08:30pm 11.2 7.9 6.3 72 2.3 SSW 13 19 7 10 1031.8 1031.9 0.0
26/08:00pm 11.0 6.5 6.9 76 2.0 SSW 20 24 11 13 1031.4 1031.5 0.0
26/07:30pm 11.3 6.6 6.2 71 2.4 SSW 20 32 11 17 1031.1 1031.2 0.0
26/07:00pm 11.8 8.0 5.7 66 2.9 SSW 15 20 8 11 1030.6 1030.7 0.0
26/06:30pm 12.5 8.0 6.1 65 3.0 SSW 19 26 10 14 1030.2 1030.3 0.0
26/06:00pm 13.2 8.4 5.4 59 3.6 SSW 20 30 11 16 1029.7 1029.8 0.0
26/05:30pm 13.9 8.3 5.5 57 4.0 SSW 24 32 13 17 1029.2 1029.3 0.0
26/05:00pm 14.8 9.7 4.2 49 4.9 SW 20 28 11 15 1028.5 1028.7 0.0
26/04:30pm 15.2 10.3 4.3 48 5.1 SW 19 28 10 15 1028.2 1028.4 0.0

Other Formats:

Comma delimited format used in spreadsheet applications
http://www.bom.gov.au/fwo/IDS60801/IDS60801.94655.axf

JavaScript Object Notation format (JSON) in row-major order
http://www.bom.gov.au/fwo/IDS60801/IDS60801.94655.json